createdAt,value
2019-03-04T00:00:53.404Z,16.03
2019-03-04T00:03:22.453Z,16.02
2019-03-04T00:05:51.491Z,16.06
2019-03-04T00:08:20.518Z,16.07
2019-03-04T00:10:49.642Z,16.11
2019-03-04T00:13:18.692Z,16.11
2019-03-04T00:15:47.738Z,16.12
2019-03-04T00:18:16.779Z,16.16
2019-03-04T00:20:45.853Z,16.17
2019-03-04T00:23:14.947Z,16.15
2019-03-04T00:25:43.949Z,16.12
2019-03-04T00:28:12.975Z,16.09
2019-03-04T00:30:42.009Z,16.10
2019-03-04T00:33:11.060Z,16.03
2019-03-04T00:35:40.175Z,16.02
2019-03-04T00:38:09.226Z,15.98
2019-03-04T00:40:38.329Z,15.95
2019-03-04T00:43:07.387Z,15.93
2019-03-04T00:45:36.464Z,15.88
2019-03-04T00:48:05.500Z,15.89
2019-03-04T00:50:34.577Z,15.90
2019-03-04T00:53:03.648Z,15.90
2019-03-04T00:55:32.689Z,15.92
2019-03-04T00:58:01.732Z,15.91
2019-03-04T01:00:30.764Z,15.93
2019-03-04T01:02:59.728Z,15.94
2019-03-04T01:05:28.793Z,15.95
2019-03-04T01:07:57.848Z,15.94
2019-03-04T01:10:26.812Z,15.96
2019-03-04T01:12:55.805Z,16.02
2019-03-04T01:15:24.792Z,16.00
2019-03-04T01:17:53.818Z,15.99
2019-03-04T01:20:22.800Z,16.04
2019-03-04T01:22:51.670Z,16.08
2019-03-04T01:25:20.687Z,16.13
2019-03-04T01:27:49.769Z,16.20
2019-03-04T01:30:21.371Z,16.20
2019-03-04T01:32:50.942Z,15.35
2019-03-04T01:35:19.979Z,16.27
2019-03-04T01:37:49.048Z,16.24
2019-03-04T01:40:19.752Z,16.36
2019-03-04T01:42:48.831Z,16.35
2019-03-04T01:45:17.999Z,16.35
2019-03-04T01:47:47.107Z,16.35
2019-03-04T01:50:17.185Z,16.34
2019-03-04T01:52:46.665Z,16.33
2019-03-04T01:55:16.393Z,16.38
2019-03-04T01:57:45.453Z,16.36
2019-03-04T02:00:16.381Z,16.35
2019-03-04T02:02:45.485Z,16.37
2019-03-04T02:05:14.628Z,16.38
2019-03-04T02:07:43.811Z,16.30
2019-03-04T02:10:17.597Z,16.31
2019-03-04T02:12:46.682Z,16.32
2019-03-04T02:15:17.670Z,16.29
2019-03-04T02:17:46.781Z,16.28
2019-03-04T02:20:17.054Z,16.26
2019-03-04T02:22:46.131Z,16.26
2019-03-04T02:25:17.186Z,16.21
2019-03-04T02:27:52.085Z,16.29
2019-03-04T02:30:26.241Z,16.22
2019-03-04T02:32:55.306Z,16.20
2019-03-04T02:35:24.388Z,16.21
2019-03-04T02:37:53.459Z,16.17
2019-03-04T02:40:22.573Z,16.10
2019-03-04T02:42:51.693Z,16.10
2019-03-04T02:45:20.760Z,16.07
2019-03-04T02:47:49.837Z,16.05
2019-03-04T02:50:18.952Z,16.04
2019-03-04T02:52:48.028Z,16.06
2019-03-04T02:55:17.448Z,16.11
2019-03-04T02:57:46.530Z,16.07
2019-03-04T03:00:16.591Z,16.02
2019-03-04T03:02:45.656Z,16.05
2019-03-04T03:05:14.733Z,16.05
2019-03-04T03:07:43.797Z,16.05
2019-03-04T03:10:13.202Z,16.04
2019-03-04T03:12:42.283Z,16.09
2019-03-04T03:15:11.579Z,16.05
2019-03-04T03:17:40.668Z,16.03
2019-03-04T03:20:10.733Z,16.07
2019-03-04T03:22:39.806Z,16.13
2019-03-04T03:25:08.991Z,16.15
2019-03-04T03:27:38.022Z,16.14
2019-03-04T03:30:08.845Z,16.16
2019-03-04T03:32:37.972Z,16.16
2019-03-04T03:35:08.806Z,16.14
2019-03-04T03:37:38.150Z,16.21
2019-03-04T03:40:08.824Z,16.14
2019-03-04T03:42:37.876Z,16.18
2019-03-04T03:45:07.081Z,16.20
2019-03-04T03:47:36.129Z,16.23
2019-03-04T03:50:05.692Z,16.24
2019-03-04T03:52:34.766Z,16.34
2019-03-04T03:55:03.817Z,16.35
2019-03-04T03:57:32.837Z,16.34
2019-03-04T04:00:01.925Z,16.50
2019-03-04T04:02:30.985Z,16.41
2019-03-04T04:05:00.040Z,16.44
2019-03-04T04:07:29.108Z,16.50
2019-03-04T04:09:58.106Z,16.45
2019-03-04T04:12:27.193Z,16.48
2019-03-04T04:14:56.255Z,16.47
2019-03-04T04:17:25.342Z,16.48
2019-03-04T04:19:54.406Z,16.46
2019-03-04T04:22:23.441Z,16.48
2019-03-04T04:24:52.718Z,16.51
2019-03-04T04:27:21.864Z,16.48
2019-03-04T04:29:50.926Z,16.42
2019-03-04T04:32:20.025Z,16.42
2019-03-04T04:34:49.073Z,16.43
2019-03-04T04:37:18.166Z,16.45
2019-03-04T04:39:47.261Z,16.55
2019-03-04T04:42:16.310Z,16.51
2019-03-04T04:44:45.380Z,16.54
2019-03-04T04:47:14.480Z,16.52
2019-03-04T04:49:43.540Z,16.54
2019-03-04T04:52:12.655Z,16.56
2019-03-04T04:54:41.732Z,16.56
2019-03-04T04:57:10.831Z,16.56
2019-03-04T04:59:39.941Z,16.55
2019-03-04T05:02:09.036Z,16.59
2019-03-04T05:04:38.228Z,16.58
2019-03-04T05:07:07.338Z,16.59
2019-03-04T05:09:36.424Z,16.61
2019-03-04T05:12:05.497Z,16.60
2019-03-04T05:14:34.573Z,16.61
2019-03-04T05:17:03.595Z,16.62
2019-03-04T05:19:32.709Z,16.57
2019-03-04T05:22:01.891Z,16.61
2019-03-04T05:24:31.005Z,16.56
2019-03-04T05:27:00.080Z,16.56
2019-03-04T05:29:29.145Z,16.59
2019-03-04T05:31:58.168Z,16.58
2019-03-04T05:34:27.237Z,16.55
2019-03-04T05:36:56.807Z,16.62
2019-03-04T05:39:25.987Z,16.51
2019-03-04T05:41:55.043Z,16.55
2019-03-04T05:44:24.165Z,16.55
2019-03-04T05:46:53.214Z,16.55
2019-03-04T05:49:22.286Z,16.54
2019-03-04T05:51:51.338Z,16.56
2019-03-04T05:54:20.451Z,16.51
2019-03-04T05:56:49.592Z,16.47
2019-03-04T05:59:19.957Z,16.48
2019-03-04T06:02:09.631Z,16.46
2019-03-04T06:04:39.993Z,16.47
2019-03-04T06:07:13.723Z,16.45
2019-03-04T06:09:42.785Z,16.40
2019-03-04T06:12:11.808Z,16.42
2019-03-04T06:14:40.939Z,16.37
2019-03-04T06:17:09.967Z,16.41
2019-03-04T06:19:39.092Z,16.40
2019-03-04T06:22:08.153Z,16.34
2019-03-04T06:24:37.290Z,15.93
2019-03-04T06:27:06.412Z,15.33
2019-03-04T06:29:35.513Z,14.86
2019-03-04T06:32:04.634Z,14.45
2019-03-04T06:34:33.703Z,14.11
2019-03-04T06:37:02.802Z,13.77
2019-03-04T06:39:31.919Z,13.51
2019-03-04T06:42:00.957Z,13.25
2019-03-04T06:44:30.064Z,13.15
2019-03-04T06:46:59.154Z,12.89
2019-03-04T06:49:28.303Z,12.81
2019-03-04T06:51:58.021Z,12.71
2019-03-04T06:55:00.401Z,12.59
2019-03-04T06:57:36.002Z,12.50
2019-03-04T07:00:31.730Z,12.44
2019-03-04T07:03:05.047Z,12.40
2019-03-04T07:05:50.954Z,12.39
2019-03-04T07:09:11.802Z,12.38
2019-03-04T07:11:52.912Z,12.40
2019-03-04T07:14:22.018Z,12.39
2019-03-04T07:16:52.350Z,12.44
2019-03-04T07:19:29.106Z,12.53
2019-03-04T07:21:58.203Z,12.59
2019-03-04T07:24:27.239Z,12.64
2019-03-04T07:26:56.303Z,12.72
2019-03-04T07:29:25.366Z,12.81
2019-03-04T07:31:54.444Z,12.80
2019-03-04T07:34:23.521Z,12.91
2019-03-04T07:36:52.615Z,12.99
2019-03-04T07:39:21.686Z,13.11
2019-03-04T07:41:52.634Z,13.14
2019-03-04T07:44:21.761Z,13.25
2019-03-04T07:46:51.363Z,13.24
2019-03-04T07:49:20.536Z,13.37
2019-03-04T07:51:49.711Z,13.52
2019-03-04T07:54:19.093Z,13.67
2019-03-04T07:56:48.232Z,13.89
2019-03-04T07:59:17.388Z,14.07
2019-03-04T08:01:46.480Z,14.18
2019-03-04T08:04:15.582Z,14.22
2019-03-04T08:06:44.619Z,14.26
2019-03-04T08:09:55.414Z,14.34
2019-03-04T08:13:08.761Z,14.40
2019-03-04T08:15:40.359Z,14.48
2019-03-04T08:18:09.626Z,14.55
2019-03-04T08:20:38.754Z,14.56
2019-03-04T08:23:10.015Z,14.57
2019-03-04T08:25:38.655Z,14.54
2019-03-04T08:28:09.100Z,14.51
2019-03-04T08:30:38.200Z,14.41
2019-03-04T08:33:07.337Z,14.44
2019-03-04T08:35:36.866Z,14.46
2019-03-04T08:38:05.925Z,14.41
2019-03-04T08:40:35.013Z,14.49
2019-03-04T08:43:04.140Z,14.52
2019-03-04T08:45:33.358Z,14.55
2019-03-04T08:48:02.639Z,14.68
2019-03-04T08:50:31.848Z,14.79
2019-03-04T08:53:00.915Z,14.91
2019-03-04T08:55:30.040Z,15.16
2019-03-04T08:57:59.178Z,15.37
2019-03-04T09:00:28.707Z,15.39
2019-03-04T09:02:57.802Z,15.54
2019-03-04T09:05:26.882Z,15.97
2019-03-04T09:07:56.005Z,16.18
2019-03-04T09:10:26.919Z,16.45
2019-03-04T09:12:55.990Z,16.52
2019-03-04T09:15:25.179Z,16.59
2019-03-04T09:17:54.283Z,16.78
2019-03-04T09:20:23.699Z,16.83
2019-03-04T09:22:52.853Z,16.69
2019-03-04T09:25:30.651Z,16.45
2019-03-04T09:27:59.171Z,16.23
2019-03-04T09:30:28.322Z,16.09
2019-03-04T09:32:57.454Z,16.00
2019-03-04T09:35:26.669Z,15.83
2019-03-04T09:37:55.712Z,15.71
2019-03-04T09:40:26.406Z,15.65
2019-03-04T09:42:55.497Z,15.60
2019-03-04T09:45:24.614Z,15.46
2019-03-04T09:47:53.681Z,15.40
2019-03-04T09:50:22.836Z,15.19
2019-03-04T09:52:51.895Z,15.13
2019-03-04T09:55:20.977Z,15.18
2019-03-04T09:57:50.043Z,15.10
2019-03-04T10:00:46.289Z,14.99
2019-03-04T10:04:02.590Z,15.03
2019-03-04T10:06:57.463Z,14.88
2019-03-04T10:09:44.897Z,14.93
2019-03-04T10:12:49.880Z,14.95
2019-03-04T10:15:39.537Z,15.04
2019-03-04T10:18:51.595Z,15.07
2019-03-04T10:21:53.821Z,15.14
2019-03-04T10:24:50.684Z,15.09
2019-03-04T10:27:56.393Z,15.09
2019-03-04T10:30:39.799Z,15.10
2019-03-04T10:34:04.135Z,15.07
2019-03-04T10:37:01.194Z,15.09
2019-03-04T10:39:57.474Z,15.01
2019-03-04T10:42:50.668Z,15.02
2019-03-04T10:45:45.268Z,15.02
2019-03-04T10:48:14.341Z,15.03
2019-03-04T10:50:43.446Z,15.03
2019-03-04T10:53:12.554Z,15.09
2019-03-04T10:55:42.500Z,15.14
2019-03-04T10:58:12.064Z,15.11
2019-03-04T11:00:41.175Z,15.08
2019-03-04T11:03:10.300Z,15.03
2019-03-04T11:05:39.366Z,15.05
2019-03-04T11:08:08.477Z,15.02
2019-03-04T11:10:37.692Z,15.02
2019-03-04T11:13:07.121Z,15.00
2019-03-04T11:15:36.187Z,14.98
2019-03-04T11:18:05.278Z,15.00
2019-03-04T11:20:34.382Z,15.03
2019-03-04T11:23:03.504Z,15.07
2019-03-04T11:25:33.295Z,15.03
2019-03-04T11:28:02.388Z,15.04
2019-03-04T11:30:32.853Z,15.03
2019-03-04T11:33:01.891Z,14.67
2019-03-04T11:35:31.003Z,14.30
2019-03-04T11:38:00.132Z,13.96
2019-03-04T11:40:47.388Z,13.70
2019-03-04T11:43:16.522Z,13.48
2019-03-04T11:45:45.668Z,13.14
2019-03-04T11:48:14.852Z,12.83
2019-03-04T11:50:44.022Z,12.62
2019-03-04T11:53:13.082Z,12.40
2019-03-04T11:55:42.305Z,12.33
2019-03-04T11:58:11.456Z,12.24
2019-03-04T12:00:44.162Z,12.18
2019-03-04T12:03:13.485Z,12.12
2019-03-04T12:05:42.645Z,12.14
2019-03-04T12:08:11.730Z,12.12
2019-03-04T12:10:40.833Z,12.12
2019-03-04T12:13:09.992Z,12.14
2019-03-04T12:15:39.155Z,12.16
2019-03-04T12:18:08.315Z,12.22
2019-03-04T12:20:37.484Z,12.36
2019-03-04T12:23:06.662Z,12.58
2019-03-04T12:25:35.850Z,12.78
2019-03-04T12:28:04.970Z,12.96
2019-03-04T12:30:34.075Z,13.13
2019-03-04T12:33:03.861Z,13.42
2019-03-04T12:35:33.055Z,13.71
2019-03-04T12:38:02.139Z,14.55
2019-03-04T12:40:31.259Z,15.29
2019-03-04T12:43:00.494Z,15.92
2019-03-04T12:45:34.530Z,16.27
2019-03-04T12:48:00.621Z,16.36
2019-03-04T12:50:29.841Z,16.38
2019-03-04T12:52:58.948Z,16.15
2019-03-04T12:55:28.113Z,15.76
2019-03-04T12:57:57.196Z,15.47
2019-03-04T13:00:26.268Z,15.31
2019-03-04T13:02:57.968Z,15.16
2019-03-04T13:05:26.168Z,15.16
2019-03-04T13:07:55.440Z,15.01
2019-03-04T13:10:24.458Z,14.82
2019-03-04T13:12:53.976Z,14.58
2019-03-04T13:15:24.017Z,14.60
2019-03-04T13:17:53.223Z,14.65
2019-03-04T13:20:22.380Z,14.69
2019-03-04T13:22:51.519Z,14.68
2019-03-04T13:25:21.279Z,14.62
2019-03-04T13:27:50.493Z,14.56
2019-03-04T13:30:21.596Z,14.52
2019-03-04T13:32:50.691Z,14.49
2019-03-04T13:35:24.446Z,14.37
2019-03-04T13:37:52.361Z,14.22
2019-03-04T13:40:21.504Z,14.09
2019-03-04T13:42:50.614Z,13.99
2019-03-04T13:45:19.786Z,13.86
2019-03-04T13:47:48.986Z,13.85
2019-03-04T13:50:19.588Z,13.96
2019-03-04T13:52:48.787Z,14.01
2019-03-04T13:55:19.974Z,14.19
2019-03-04T13:57:49.339Z,14.35
2019-03-04T14:00:22.328Z,14.54
2019-03-04T14:02:51.466Z,14.72
2019-03-04T14:05:21.213Z,14.78
2019-03-04T14:07:50.449Z,14.77
2019-03-04T14:10:20.239Z,14.80
2019-03-04T14:12:49.378Z,14.89
2019-03-04T14:15:21.824Z,14.91
2019-03-04T14:17:51.011Z,14.91
2019-03-04T14:20:20.155Z,14.89
2019-03-04T14:22:57.192Z,14.88
2019-03-04T14:25:20.260Z,14.82
2019-03-04T14:27:49.375Z,14.79
2019-03-04T14:30:18.467Z,14.78
2019-03-04T14:32:47.948Z,14.72
2019-03-04T14:35:17.023Z,14.73
2019-03-04T14:37:46.170Z,14.75
2019-03-04T14:40:16.268Z,14.70
2019-03-04T14:42:45.363Z,14.77
2019-03-04T14:45:17.070Z,14.75
2019-03-04T14:47:46.192Z,14.77
2019-03-04T14:50:16.288Z,14.72
2019-03-04T14:52:45.489Z,14.75
2019-03-04T14:55:16.408Z,14.67
2019-03-04T14:57:45.771Z,14.75
2019-03-04T15:00:17.868Z,14.74
2019-03-04T15:02:47.000Z,14.72
2019-03-04T15:05:16.121Z,14.67
2019-03-04T15:07:45.287Z,14.51
2019-03-04T15:10:15.530Z,14.41
2019-03-04T15:12:44.712Z,14.35
2019-03-04T15:15:14.485Z,14.29
2019-03-04T15:17:43.661Z,14.29
2019-03-04T15:20:16.383Z,14.29
2019-03-04T15:22:45.498Z,14.33
2019-03-04T15:25:18.459Z,14.36
2019-03-04T15:27:47.620Z,14.35
2019-03-04T15:30:16.786Z,14.31
2019-03-04T15:32:45.976Z,14.32
2019-03-04T15:35:15.088Z,14.30
2019-03-04T15:37:44.275Z,14.29
2019-03-04T15:40:13.524Z,14.23
2019-03-04T15:42:42.854Z,14.21
2019-03-04T15:45:12.467Z,14.14
2019-03-04T15:47:41.718Z,14.08
2019-03-04T15:50:10.876Z,14.09
2019-03-04T15:52:40.050Z,14.06
2019-03-04T15:55:12.750Z,14.01
2019-03-04T15:57:41.890Z,13.95
2019-03-04T16:00:11.805Z,13.92
2019-03-04T16:02:40.941Z,13.89
2019-03-04T16:05:10.531Z,13.89
2019-03-04T16:07:39.612Z,13.88
2019-03-04T16:10:11.389Z,13.90
2019-03-04T16:12:40.961Z,13.83
2019-03-04T16:15:13.757Z,13.80
2019-03-04T16:17:42.931Z,13.82
2019-03-04T16:20:16.337Z,13.77
2019-03-04T16:22:44.045Z,13.70
2019-03-04T16:25:13.345Z,13.67
2019-03-04T16:27:42.545Z,13.59
2019-03-04T16:30:14.227Z,13.52
2019-03-04T16:32:43.399Z,13.40
2019-03-04T16:35:12.524Z,13.35
2019-03-04T16:37:41.646Z,13.32
2019-03-04T16:40:13.663Z,13.26
2019-03-04T16:42:42.847Z,13.20
2019-03-04T16:45:13.061Z,13.17
2019-03-04T16:47:42.267Z,13.13
2019-03-04T16:50:12.689Z,13.11
2019-03-04T16:52:42.078Z,13.05
2019-03-04T16:55:13.137Z,13.03
2019-03-04T16:57:42.230Z,13.01
2019-03-04T17:00:13.678Z,12.95
2019-03-04T17:02:42.892Z,12.90
2019-03-04T17:05:12.983Z,12.83
2019-03-04T17:07:42.316Z,12.77
2019-03-04T17:10:12.431Z,12.72
2019-03-04T17:12:41.696Z,12.67
2019-03-04T17:15:13.183Z,12.61
2019-03-04T17:17:42.324Z,12.56
2019-03-04T17:20:12.030Z,12.54
2019-03-04T17:22:41.486Z,12.49
2019-03-04T17:25:11.636Z,12.47
2019-03-04T17:27:41.512Z,12.43
2019-03-04T17:30:12.098Z,12.38
2019-03-04T17:32:43.824Z,12.34
2019-03-04T17:35:15.304Z,12.32
2019-03-04T17:37:44.504Z,12.27
2019-03-04T17:40:14.176Z,12.22
2019-03-04T17:42:43.337Z,12.18
2019-03-04T17:45:13.822Z,12.14
2019-03-04T17:47:42.933Z,12.10
2019-03-04T17:50:14.382Z,12.07
2019-03-04T17:52:43.570Z,12.05
2019-03-04T17:55:13.308Z,12.05
2019-03-04T17:57:42.415Z,12.03
2019-03-04T18:00:13.554Z,12.00
2019-03-04T18:02:42.701Z,11.97
2019-03-04T18:05:12.055Z,11.94
2019-03-04T18:07:41.174Z,11.93
2019-03-04T18:10:12.380Z,11.92
2019-03-04T18:12:41.473Z,11.90
2019-03-04T18:15:13.772Z,11.88
2019-03-04T18:17:42.818Z,11.84
2019-03-04T18:20:12.523Z,11.86
2019-03-04T18:22:42.922Z,11.84
2019-03-04T18:25:16.001Z,11.83
2019-03-04T18:27:50.319Z,11.83
2019-03-04T18:30:55.757Z,11.83
2019-03-04T18:34:04.717Z,11.78
2019-03-04T18:37:05.213Z,11.73
2019-03-04T18:40:24.968Z,11.64
2019-03-04T18:44:02.426Z,11.59
2019-03-04T18:47:09.967Z,11.58
2019-03-04T18:49:39.090Z,11.56
2019-03-04T18:52:08.286Z,11.55
2019-03-04T18:54:37.512Z,11.59
2019-03-04T18:57:06.622Z,11.55
2019-03-04T18:59:35.754Z,11.57
2019-03-04T19:02:04.936Z,11.53
2019-03-04T19:04:34.077Z,11.55
2019-03-04T19:07:03.150Z,11.53
2019-03-04T19:09:32.261Z,11.57
2019-03-04T19:12:01.396Z,11.58
2019-03-04T19:14:30.554Z,11.55
2019-03-04T19:16:59.829Z,11.52
2019-03-04T19:19:28.957Z,11.53
2019-03-04T19:21:58.043Z,11.52
2019-03-04T19:24:27.250Z,11.51
2019-03-04T19:26:56.425Z,11.52
2019-03-04T19:29:25.647Z,11.48
2019-03-04T19:31:55.098Z,11.49
2019-03-04T19:34:24.268Z,11.47
2019-03-04T19:36:53.364Z,11.48
2019-03-04T19:39:22.483Z,11.46
2019-03-04T19:41:51.562Z,11.45
2019-03-04T19:44:20.698Z,11.48
2019-03-04T19:46:49.924Z,11.46
2019-03-04T19:49:20.028Z,11.47
2019-03-04T19:51:49.166Z,11.49
2019-03-04T19:54:18.254Z,11.45
2019-03-04T19:56:47.353Z,11.41
2019-03-04T19:59:16.529Z,11.41
2019-03-04T20:01:45.607Z,11.41
2019-03-04T20:04:14.700Z,11.43
2019-03-04T20:06:43.769Z,11.34
2019-03-04T20:09:12.869Z,11.32
2019-03-04T20:11:42.140Z,11.36
2019-03-04T20:14:11.324Z,11.33
2019-03-04T20:16:40.396Z,11.32
2019-03-04T20:19:09.644Z,11.31
2019-03-04T20:21:38.740Z,11.31
2019-03-04T20:24:07.835Z,11.31
2019-03-04T20:26:37.020Z,11.34
2019-03-04T20:29:06.207Z,11.40
2019-03-04T20:31:35.399Z,11.44
2019-03-04T20:34:04.837Z,11.50
2019-03-04T20:36:33.930Z,11.56
2019-03-04T20:39:03.246Z,11.64
2019-03-04T20:41:32.292Z,11.66
2019-03-04T20:44:01.369Z,11.75
2019-03-04T20:46:30.452Z,11.84
2019-03-04T20:48:59.526Z,11.86
2019-03-04T20:51:28.610Z,11.92
2019-03-04T20:53:57.723Z,11.98
2019-03-04T20:56:26.860Z,12.03
2019-03-04T20:58:55.939Z,12.06
2019-03-04T21:01:25.094Z,12.07
2019-03-04T21:03:54.113Z,12.09
2019-03-04T21:06:23.261Z,12.07
2019-03-04T21:08:52.474Z,12.10
2019-03-04T21:11:21.536Z,12.06
2019-03-04T21:13:50.601Z,12.05
2019-03-04T21:16:19.755Z,12.05
2019-03-04T21:18:48.841Z,12.05
2019-03-04T21:21:18.749Z,12.00
2019-03-04T21:23:48.625Z,12.02
2019-03-04T21:26:20.839Z,11.98
2019-03-04T21:29:30.494Z,11.88
2019-03-04T21:32:21.449Z,11.79
2019-03-04T21:35:56.024Z,11.59
2019-03-04T21:38:30.763Z,11.43
2019-03-04T21:41:36.852Z,11.18
2019-03-04T21:44:45.680Z,11.16
2019-03-04T21:47:30.545Z,11.09
2019-03-04T21:49:59.743Z,10.97
2019-03-04T21:52:52.907Z,11.03
2019-03-04T21:55:29.967Z,11.07
2019-03-04T21:57:59.126Z,11.07
2019-03-04T22:00:34.791Z,11.10
2019-03-04T22:03:17.090Z,11.08
2019-03-04T22:05:50.273Z,11.10
2019-03-04T22:08:16.944Z,11.14
2019-03-04T22:10:46.147Z,11.18
2019-03-04T22:13:15.260Z,11.17
2019-03-04T22:15:44.441Z,11.16
2019-03-04T22:18:13.519Z,11.19
2019-03-04T22:20:43.761Z,11.15
2019-03-04T22:23:12.863Z,11.10
2019-03-04T22:25:41.930Z,11.13
2019-03-04T22:28:11.186Z,11.11
2019-03-04T22:30:40.259Z,11.13
2019-03-04T22:33:09.330Z,11.10
2019-03-04T22:35:38.538Z,11.10
2019-03-04T22:38:07.633Z,11.18
2019-03-04T22:40:36.692Z,11.20
2019-03-04T22:43:05.819Z,11.22
2019-03-04T22:45:35.032Z,11.24
2019-03-04T22:48:04.082Z,11.29
2019-03-04T22:50:33.145Z,11.32
2019-03-04T22:53:02.247Z,11.35
2019-03-04T22:55:34.086Z,11.38
2019-03-04T22:58:03.243Z,11.39
2019-03-04T23:01:17.678Z,11.33
2019-03-04T23:03:47.676Z,11.33
2019-03-04T23:06:20.540Z,11.22
2019-03-04T23:08:49.742Z,11.25
2019-03-04T23:11:20.241Z,11.31
2019-03-04T23:14:06.965Z,11.35
2019-03-04T23:16:36.009Z,11.43
2019-03-04T23:19:05.070Z,11.49
2019-03-04T23:21:34.158Z,11.47
2019-03-04T23:24:03.276Z,11.49
2019-03-04T23:26:32.322Z,11.52
2019-03-04T23:29:01.359Z,11.57
2019-03-04T23:31:30.489Z,11.60
2019-03-04T23:33:59.621Z,11.62
2019-03-04T23:36:28.769Z,11.63
2019-03-04T23:38:57.852Z,11.61
2019-03-04T23:41:26.918Z,11.67
2019-03-04T23:43:55.978Z,11.61
2019-03-04T23:46:25.131Z,11.61
2019-03-04T23:48:54.245Z,11.64
2019-03-04T23:51:23.376Z,11.64
2019-03-04T23:53:52.473Z,11.65
2019-03-04T23:56:21.526Z,11.57
2019-03-04T23:58:50.743Z,11.72
